Bodan 5 — DINQ2 — position and weather

sailwx.info

Track history (hours):
 
Tides and Currents Weather Stations Pressure Air Temp Water Temp Dewpoint Dewpoint Depression Visibility Wind Speed Wind Dir Waves Ship Positions

Bodan 5

Last reported at 2017-Sep-10 13:37 UTC. Time now 2017-Sep-23 16:36 UTC.
Position N 43°38' W 006°02'.
Warning: this ship's position is 13 days out of date.

Length 14 m; draft 2.4 m.

Type: Sailing vessel. MMSI: 211249120.

Date/timePositionNaut miles runAvg speedWind from/ knotsBaromVisibWave heightAir tempDewpointWater temp
2017-Sep-10 13:37N 43°38' W 006°02'12 4.6
2017-Sep-10 11:06N 43°40' W 005°47'0 5.0
2017-Sep-10 11:00N 43°40' W 005°46'2 4.8
2017-Sep-10 10:30N 43°40' W 005°43'3 6.8
2017-Sep-10 10:00N 43°37' W 005°41'4 6.7
2017-Sep-10 09:29N 43°33' W 005°40'1 0.0
2017-Sep-08 18:27N 43°33' W 005°40'0 0.0
2017-Sep-08 18:00N 43°33' W 005°40'0 0.0
2017-Sep-08 17:29N 43°33' W 005°40'0 0.6
2017-Sep-08 16:58N 43°33' W 005°40'3 6.0
2017-Sep-08 16:27N 43°34' W 005°36'13 7.4
2017-Sep-08 14:46N 43°34' W 005°19'  
2017-Sep-04 13:25N 46°01' W 001°32'3 5.5
2017-Sep-04 12:57N 46°03' W 001°30'2 5.3
2017-Sep-04 12:29N 46°04' W 001°27'2 4.9
2017-Sep-04 12:01N 46°05' W 001°24'3 5.3
2017-Sep-04 11:31N 46°05' W 001°20'3 5.6
2017-Sep-04 11:00N 46°06' W 001°16'3 5.7
2017-Sep-04 10:31N 46°08' W 001°13'2 3.9
2017-Sep-04 09:58N 46°09' W 001°10'0 0.0
2017-Sep-04 09:22N 46°09' W 001°10'0 0.0
2017-Sep-04 08:58N 46°09' W 001°10'0 0.0
2017-Sep-04 08:28N 46°09' W 001°10'0 0.0
2017-Sep-04 07:58N 46°09' W 001°10'0 0.0
2017-Sep-04 07:28N 46°09' W 001°10'0 0.0
2017-Sep-03 15:23N 46°09' W 001°10'0 0.0
2017-Sep-03 14:59N 46°09' W 001°10'0 0.0
2017-Sep-03 13:58N 46°09' W 001°10'0 0.0
2017-Sep-03 13:28N 46°09' W 001°10'0 0.0
2017-Sep-03 12:58N 46°09' W 001°10'0 0.0
2017-Sep-03 12:28N 46°09' W 001°10'0 0.0
2017-Sep-03 11:58N 46°09' W 001°10'0 0.0
2017-Sep-03 11:28N 46°09' W 001°10'0 0.0
2017-Sep-03 10:58N 46°09' W 001°10'0 0.0
2017-Sep-03 10:25N 46°09' W 001°10'0 0.0
2017-Sep-03 09:58N 46°09' W 001°10'0 0.0
2017-Sep-03 09:25N 46°09' W 001°10'0 0.0
2017-Sep-03 08:58N 46°09' W 001°10'0 0.0
2017-Sep-03 08:28N 46°09' W 001°10'0 0.0
2017-Sep-02 12:52N 46°09' W 001°10'0 0.0
2017-Sep-02 12:29N 46°09' W 001°10'0 0.0
2017-Sep-02 11:59N 46°09' W 001°10'0 0.0
2017-Sep-02 11:29N 46°09' W 001°10'0 0.0
2017-Sep-02 10:59N 46°09' W 001°10'0 0.0
2017-Sep-02 10:29N 46°09' W 001°10'0 0.0
2017-Sep-01 13:25N 46°09' W 001°10'0 0.0
2017-Sep-01 12:57N 46°09' W 001°10'0 0.1
2017-Sep-01 12:27N 46°09' W 001°10'0 0.5
2017-Sep-01 12:00N 46°09' W 001°10'1 1.8
2017-Sep-01 11:30N 46°09' W 001°11'3 5.1
2017-Sep-01 11:00N 46°09' W 001°15'3 5.8
2017-Sep-01 10:30N 46°12' W 001°17'3 5.9
2017-Sep-01 10:01N 46°13' W 001°21'1 1.8
2017-Sep-01 09:30N 46°12' W 001°22'0 0.0
2017-Aug-31 18:55N 46°12' W 001°22'0 0.0
2017-Aug-31 18:25N 46°12' W 001°22'0 0.0
2017-Aug-31 17:58N 46°12' W 001°22'0 0.0
2017-Aug-31 17:28N 46°12' W 001°22'0 0.0
2017-Aug-31 16:58N 46°12' W 001°22'0 0.0
2017-Aug-31 16:24N 46°12' W 001°22'0 0.0
2017-Aug-31 15:59N 46°12' W 001°22'0 0.0
2017-Aug-31 15:29N 46°12' W 001°22'0 0.0
2017-Aug-31 14:56N 46°12' W 001°22'0 0.0
2017-Aug-31 14:26N 46°12' W 001°22'0 0.0
2017-Aug-31 13:56N 46°12' W 001°22'  
Track history (hours):
 
Tides and Currents Weather Stations Pressure Air Temp Water Temp Dewpoint Dewpoint Depression Visibility Wind Speed Wind Dir Waves Ship Positions

Bodan 5

Last reported at 2017-Sep-10 13:37 UTC. Time now 2017-Sep-23 16:36 UTC.
Position N 43°38' W 006°02'.
Warning: this ship's position is 13 days out of date.

Length 14 m; draft 2.4 m.

Type: Sailing vessel. MMSI: 211249120.

Date/timePositionNaut miles runAvg speedWind from/ knotsBaromVisibWave heightAir tempDewpointWater temp
2017-Sep-10 13:37N 43°38' W 006°02'12 4.6
2017-Sep-10 11:06N 43°40' W 005°47'0 5.0
2017-Sep-10 11:00N 43°40' W 005°46'2 4.8
2017-Sep-10 10:30N 43°40' W 005°43'3 6.8
2017-Sep-10 10:00N 43°37' W 005°41'4 6.7
2017-Sep-10 09:29N 43°33' W 005°40'1 0.0
2017-Sep-08 18:27N 43°33' W 005°40'0 0.0
2017-Sep-08 18:00N 43°33' W 005°40'0 0.0
2017-Sep-08 17:29N 43°33' W 005°40'0 0.6
2017-Sep-08 16:58N 43°33' W 005°40'3 6.0
2017-Sep-08 16:27N 43°34' W 005°36'13 7.4
2017-Sep-08 14:46N 43°34' W 005°19'  
2017-Sep-04 13:25N 46°01' W 001°32'3 5.5
2017-Sep-04 12:57N 46°03' W 001°30'2 5.3
2017-Sep-04 12:29N 46°04' W 001°27'2 4.9
2017-Sep-04 12:01N 46°05' W 001°24'3 5.3
2017-Sep-04 11:31N 46°05' W 001°20'3 5.6
2017-Sep-04 11:00N 46°06' W 001°16'3 5.7
2017-Sep-04 10:31N 46°08' W 001°13'2 3.9
2017-Sep-04 09:58N 46°09' W 001°10'0 0.0
2017-Sep-04 09:22N 46°09' W 001°10'0 0.0
2017-Sep-04 08:58N 46°09' W 001°10'0 0.0
2017-Sep-04 08:28N 46°09' W 001°10'0 0.0
2017-Sep-04 07:58N 46°09' W 001°10'0 0.0
2017-Sep-04 07:28N 46°09' W 001°10'0 0.0
2017-Sep-03 15:23N 46°09' W 001°10'0 0.0
2017-Sep-03 14:59N 46°09' W 001°10'0 0.0
2017-Sep-03 13:58N 46°09' W 001°10'0 0.0
2017-Sep-03 13:28N 46°09' W 001°10'0 0.0
2017-Sep-03 12:58N 46°09' W 001°10'0 0.0
2017-Sep-03 12:28N 46°09' W 001°10'0 0.0
2017-Sep-03 11:58N 46°09' W 001°10'0 0.0
2017-Sep-03 11:28N 46°09' W 001°10'0 0.0
2017-Sep-03 10:58N 46°09' W 001°10'0 0.0
2017-Sep-03 10:25N 46°09' W 001°10'0 0.0
2017-Sep-03 09:58N 46°09' W 001°10'0 0.0
2017-Sep-03 09:25N 46°09' W 001°10'0 0.0
2017-Sep-03 08:58N 46°09' W 001°10'0 0.0
2017-Sep-03 08:28N 46°09' W 001°10'0 0.0
2017-Sep-02 12:52N 46°09' W 001°10'0 0.0
2017-Sep-02 12:29N 46°09' W 001°10'0 0.0
2017-Sep-02 11:59N 46°09' W 001°10'0 0.0
2017-Sep-02 11:29N 46°09' W 001°10'0 0.0
2017-Sep-02 10:59N 46°09' W 001°10'0 0.0
2017-Sep-02 10:29N 46°09' W 001°10'0 0.0
2017-Sep-01 13:25N 46°09' W 001°10'0 0.0
2017-Sep-01 12:57N 46°09' W 001°10'0 0.1
2017-Sep-01 12:27N 46°09' W 001°10'0 0.5
2017-Sep-01 12:00N 46°09' W 001°10'1 1.8
2017-Sep-01 11:30N 46°09' W 001°11'3 5.1
2017-Sep-01 11:00N 46°09' W 001°15'3 5.8
2017-Sep-01 10:30N 46°12' W 001°17'3 5.9
2017-Sep-01 10:01N 46°13' W 001°21'1 1.8
2017-Sep-01 09:30N 46°12' W 001°22'0 0.0
2017-Aug-31 18:55N 46°12' W 001°22'0 0.0
2017-Aug-31 18:25N 46°12' W 001°22'0 0.0
2017-Aug-31 17:58N 46°12' W 001°22'0 0.0
2017-Aug-31 17:28N 46°12' W 001°22'0 0.0
2017-Aug-31 16:58N 46°12' W 001°22'0 0.0
2017-Aug-31 16:24N 46°12' W 001°22'0 0.0
2017-Aug-31 15:59N 46°12' W 001°22'0 0.0
2017-Aug-31 15:29N 46°12' W 001°22'0 0.0
2017-Aug-31 14:56N 46°12' W 001°22'0 0.0
2017-Aug-31 14:26N 46°12' W 001°22'0 0.0
2017-Aug-31 13:56N 46°12' W 001°22'  

Dump ship's entire track history